Terminal Aerodrome Forecast
Issued by NWS

Home | Current Version | Previous Version | Text Only | Print | Product List | Glossary Off
Versions: 1 2 3 4 5 6 7 8 9 10 11 12

000
FTUS43 KGRB 221700
TAFCWA
TAF
KCWA 221722Z 2218/2318 30014G23KT P6SM SCT025 BKN035
      TEMPO 2218/2222 -SHRASN BKN025
     FM222200 30013G18KT P6SM VCSH SCT025 BKN035
     FM230100 30008KT P6SM SCT025 BKN040
     FM230600 30007KT P6SM SCT025 SCT040
     FM231400 30010KT P6SM SCT035=

USA.gov is the U.S. government's official web portal to all federal, state and local government web resources and services.